sensor_id;sensor_type;location;lat;lon;timestamp;P1;durP1;ratioP1;P2;durP2;ratioP2
10191;SDS011;17580;50.850;4.504;2023-04-03T00:01:46;6.70;;;5.63;;
10191;SDS011;17580;50.850;4.504;2023-04-03T00:04:13;6.23;;;5.50;;
10191;SDS011;17580;50.850;4.504;2023-04-03T00:06:41;5.97;;;5.17;;
10191;SDS011;17580;50.850;4.504;2023-04-03T00:09:08;6.60;;;5.47;;
10191;SDS011;17580;50.850;4.504;2023-04-03T00:11:35;5.43;;;4.93;;
10191;SDS011;17580;50.850;4.504;2023-04-03T00:14:02;7.90;;;5.00;;
10191;SDS011;17580;50.850;4.504;2023-04-03T00:16:29;5.57;;;5.07;;
10191;SDS011;17580;50.850;4.504;2023-04-03T00:18:56;6.63;;;5.90;;
10191;SDS011;17580;50.850;4.504;2023-04-03T00:21:23;6.47;;;5.70;;
10191;SDS011;17580;50.850;4.504;2023-04-03T00:23:52;6.47;;;5.60;;
10191;SDS011;17580;50.850;4.504;2023-04-03T00:26:19;8.93;;;5.90;;
10191;SDS011;17580;50.850;4.504;2023-04-03T00:28:46;8.70;;;5.43;;
10191;SDS011;17580;50.850;4.504;2023-04-03T00:31:14;10.67;;;6.07;;
10191;SDS011;17580;50.850;4.504;2023-04-03T00:33:41;7.13;;;6.20;;
10191;SDS011;17580;50.850;4.504;2023-04-03T00:36:08;6.00;;;5.40;;
10191;SDS011;17580;50.850;4.504;2023-04-03T00:38:36;8.07;;;5.40;;
10191;SDS011;17580;50.850;4.504;2023-04-03T00:41:05;7.63;;;5.23;;
10191;SDS011;17580;50.850;4.504;2023-04-03T00:43:32;6.63;;;4.60;;
10191;SDS011;17580;50.850;4.504;2023-04-03T00:45:59;5.37;;;4.17;;
10191;SDS011;17580;50.850;4.504;2023-04-03T00:48:28;5.07;;;4.47;;
10191;SDS011;17580;50.850;4.504;2023-04-03T00:50:57;5.80;;;4.27;;
10191;SDS011;17580;50.850;4.504;2023-04-03T00:53:26;5.00;;;4.13;;
10191;SDS011;17580;50.850;4.504;2023-04-03T00:55:56;5.67;;;4.33;;
10191;SDS011;17580;50.850;4.504;2023-04-03T00:58:27;5.03;;;4.30;;
10191;SDS011;17580;50.850;4.504;2023-04-03T01:00:59;4.93;;;4.13;;
10191;SDS011;17580;50.850;4.504;2023-04-03T01:03:32;5.00;;;4.10;;
10191;SDS011;17580;50.850;4.504;2023-04-03T01:05:59;4.77;;;4.00;;
10191;SDS011;17580;50.850;4.504;2023-04-03T01:08:27;4.57;;;4.17;;
10191;SDS011;17580;50.850;4.504;2023-04-03T01:10:54;5.63;;;4.53;;
10191;SDS011;17580;50.850;4.504;2023-04-03T01:13:22;4.77;;;4.10;;
10191;SDS011;17580;50.850;4.504;2023-04-03T01:15:53;5.27;;;4.73;;
10191;SDS011;17580;50.850;4.504;2023-04-03T01:18:21;6.07;;;4.00;;
10191;SDS011;17580;50.850;4.504;2023-04-03T01:20:57;4.53;;;4.23;;
10191;SDS011;17580;50.850;4.504;2023-04-03T01:23:43;5.20;;;4.37;;
10191;SDS011;17580;50.850;4.504;2023-04-03T01:26:19;4.53;;;4.00;;
10191;SDS011;17580;50.850;4.504;2023-04-03T01:28:46;7.67;;;4.80;;
10191;SDS011;17580;50.850;4.504;2023-04-03T01:31:18;4.57;;;4.17;;
10191;SDS011;17580;50.850;4.504;2023-04-03T01:33:52;4.20;;;3.90;;
10191;SDS011;17580;50.850;4.504;2023-04-03T01:36:20;4.60;;;4.20;;
10191;SDS011;17580;50.850;4.504;2023-04-03T01:38:49;3.97;;;3.77;;
10191;SDS011;17580;50.850;4.504;2023-04-03T01:41:16;5.03;;;4.53;;
10191;SDS011;17580;50.850;4.504;2023-04-03T01:43:43;4.70;;;4.40;;
10191;SDS011;17580;50.850;4.504;2023-04-03T01:46:10;6.20;;;3.80;;
10191;SDS011;17580;50.850;4.504;2023-04-03T01:48:37;6.20;;;4.10;;
10191;SDS011;17580;50.850;4.504;2023-04-03T01:51:06;4.23;;;3.80;;
10191;SDS011;17580;50.850;4.504;2023-04-03T01:53:33;4.40;;;4.00;;
10191;SDS011;17580;50.850;4.504;2023-04-03T01:56:00;4.57;;;3.83;;
10191;SDS011;17580;50.850;4.504;2023-04-03T01:58:27;3.90;;;3.60;;
10191;SDS011;17580;50.850;4.504;2023-04-03T02:00:53;4.97;;;3.77;;
10191;SDS011;17580;50.850;4.504;2023-04-03T02:03:20;4.10;;;3.73;;
10191;SDS011;17580;50.850;4.504;2023-04-03T02:05:47;7.23;;;3.50;;
10191;SDS011;17580;50.850;4.504;2023-04-03T02:08:17;4.67;;;4.03;;
10191;SDS011;17580;50.850;4.504;2023-04-03T02:10:44;7.17;;;4.37;;
10191;SDS011;17580;50.850;4.504;2023-04-03T02:13:13;6.20;;;4.30;;
10191;SDS011;17580;50.850;4.504;2023-04-03T02:15:40;8.57;;;4.37;;
10191;SDS011;17580;50.850;4.504;2023-04-03T02:18:07;6.07;;;3.90;;
10191;SDS011;17580;50.850;4.504;2023-04-03T02:20:34;4.20;;;3.80;;
10191;SDS011;17580;50.850;4.504;2023-04-03T02:23:01;4.37;;;3.97;;
10191;SDS011;17580;50.850;4.504;2023-04-03T02:25:31;4.57;;;4.17;;
10191;SDS011;17580;50.850;4.504;2023-04-03T02:27:59;4.07;;;3.53;;
10191;SDS011;17580;50.850;4.504;2023-04-03T02:30:25;4.20;;;3.80;;
10191;SDS011;17580;50.850;4.504;2023-04-03T02:32:53;4.53;;;4.23;;
10191;SDS011;17580;50.850;4.504;2023-04-03T02:35:21;3.77;;;3.40;;
10191;SDS011;17580;50.850;4.504;2023-04-03T02:37:48;4.67;;;4.00;;
10191;SDS011;17580;50.850;4.504;2023-04-03T02:40:15;4.20;;;3.57;;
10191;SDS011;17580;50.850;4.504;2023-04-03T02:42:43;5.53;;;4.00;;
10191;SDS011;17580;50.850;4.504;2023-04-03T02:45:10;4.40;;;4.07;;
10191;SDS011;17580;50.850;4.504;2023-04-03T02:47:37;4.57;;;3.40;;
10191;SDS011;17580;50.850;4.504;2023-04-03T02:50:04;3.97;;;3.77;;
10191;SDS011;17580;50.850;4.504;2023-04-03T02:52:31;4.13;;;3.80;;
10191;SDS011;17580;50.850;4.504;2023-04-03T02:54:58;4.63;;;3.50;;
10191;SDS011;17580;50.850;4.504;2023-04-03T02:57:25;4.80;;;4.03;;
10191;SDS011;17580;50.850;4.504;2023-04-03T02:59:54;3.40;;;3.20;;
10191;SDS011;17580;50.850;4.504;2023-04-03T03:02:20;5.27;;;3.67;;
10191;SDS011;17580;50.850;4.504;2023-04-03T03:04:47;3.87;;;3.47;;
10191;SDS011;17580;50.850;4.504;2023-04-03T03:07:14;4.83;;;4.00;;
10191;SDS011;17580;50.850;4.504;2023-04-03T03:09:41;4.70;;;3.80;;
10191;SDS011;17580;50.850;4.504;2023-04-03T03:12:09;4.10;;;3.63;;
10191;SDS011;17580;50.850;4.504;2023-04-03T03:14:35;4.17;;;3.87;;
10191;SDS011;17580;50.850;4.504;2023-04-03T03:17:04;3.30;;;3.10;;
10191;SDS011;17580;50.850;4.504;2023-04-03T03:19:31;4.03;;;3.47;;
10191;SDS011;17580;50.850;4.504;2023-04-03T03:21:58;4.17;;;3.60;;
10191;SDS011;17580;50.850;4.504;2023-04-03T03:24:25;3.80;;;3.40;;
10191;SDS011;17580;50.850;4.504;2023-04-03T03:26:52;3.90;;;3.60;;
10191;SDS011;17580;50.850;4.504;2023-04-03T03:29:18;4.73;;;4.03;;
10191;SDS011;17580;50.850;4.504;2023-04-03T03:31:46;4.10;;;3.80;;
10191;SDS011;17580;50.850;4.504;2023-04-03T03:34:14;3.90;;;3.60;;
10191;SDS011;17580;50.850;4.504;2023-04-03T03:36:41;4.20;;;3.80;;
10191;SDS011;17580;50.850;4.504;2023-04-03T03:39:08;4.33;;;3.93;;
10191;SDS011;17580;50.850;4.504;2023-04-03T03:41:35;5.37;;;4.10;;
10191;SDS011;17580;50.850;4.504;2023-04-03T03:44:02;4.40;;;4.10;;
10191;SDS011;17580;50.850;4.504;2023-04-03T03:46:30;4.23;;;3.93;;
10191;SDS011;17580;50.850;4.504;2023-04-03T03:48:57;4.30;;;4.00;;
10191;SDS011;17580;50.850;4.504;2023-04-03T03:51:25;4.90;;;3.67;;
10191;SDS011;17580;50.850;4.504;2023-04-03T03:53:52;5.33;;;4.17;;
10191;SDS011;17580;50.850;4.504;2023-04-03T03:56:19;5.63;;;3.97;;
10191;SDS011;17580;50.850;4.504;2023-04-03T03:58:46;3.90;;;3.60;;
10191;SDS011;17580;50.850;4.504;2023-04-03T04:01:14;3.90;;;3.60;;
10191;SDS011;17580;50.850;4.504;2023-04-03T04:03:41;4.07;;;3.67;;
10191;SDS011;17580;50.850;4.504;2023-04-03T04:06:08;4.60;;;4.07;;
10191;SDS011;17580;50.850;4.504;2023-04-03T04:08:37;5.50;;;4.23;;
10191;SDS011;17580;50.850;4.504;2023-04-03T04:11:04;4.67;;;4.00;;
10191;SDS011;17580;50.850;4.504;2023-04-03T04:13:31;4.50;;;4.10;;
10191;SDS011;17580;50.850;4.504;2023-04-03T04:15:58;5.80;;;3.97;;
10191;SDS011;17580;50.850;4.504;2023-04-03T04:18:25;4.70;;;4.27;;
10191;SDS011;17580;50.850;4.504;2023-04-03T04:20:52;5.43;;;4.87;;
10191;SDS011;17580;50.850;4.504;2023-04-03T04:23:19;6.50;;;4.90;;
10191;SDS011;17580;50.850;4.504;2023-04-03T04:25:47;7.83;;;5.13;;
10191;SDS011;17580;50.850;4.504;2023-04-03T04:28:15;6.30;;;5.60;;
10191;SDS011;17580;50.850;4.504;2023-04-03T04:30:42;8.00;;;6.30;;
10191;SDS011;17580;50.850;4.504;2023-04-03T04:33:09;10.70;;;7.13;;
10191;SDS011;17580;50.850;4.504;2023-04-03T04:35:36;7.97;;;6.30;;
10191;SDS011;17580;50.850;4.504;2023-04-03T04:38:03;8.90;;;6.67;;
10191;SDS011;17580;50.850;4.504;2023-04-03T04:40:30;6.73;;;6.07;;
10191;SDS011;17580;50.850;4.504;2023-04-03T04:42:59;7.73;;;5.90;;
10191;SDS011;17580;50.850;4.504;2023-04-03T04:45:25;9.57;;;6.27;;
10191;SDS011;17580;50.850;4.504;2023-04-03T04:47:54;8.37;;;6.57;;
10191;SDS011;17580;50.850;4.504;2023-04-03T04:50:21;10.27;;;7.27;;
10191;SDS011;17580;50.850;4.504;2023-04-03T04:52:48;8.80;;;6.00;;
10191;SDS011;17580;50.850;4.504;2023-04-03T04:55:15;6.30;;;5.60;;
10191;SDS011;17580;50.850;4.504;2023-04-03T04:57:42;7.17;;;6.13;;
10191;SDS011;17580;50.850;4.504;2023-04-03T05:00:11;6.43;;;5.50;;
10191;SDS011;17580;50.850;4.504;2023-04-03T05:02:39;5.30;;;4.80;;
10191;SDS011;17580;50.850;4.504;2023-04-03T05:05:07;5.13;;;4.63;;
10191;SDS011;17580;50.850;4.504;2023-04-03T05:07:34;5.03;;;4.63;;
10191;SDS011;17580;50.850;4.504;2023-04-03T05:10:02;9.03;;;5.40;;
10191;SDS011;17580;50.850;4.504;2023-04-03T05:12:29;6.23;;;5.40;;
10191;SDS011;17580;50.850;4.504;2023-04-03T05:14:56;5.63;;;5.13;;
10191;SDS011;17580;50.850;4.504;2023-04-03T05:17:25;6.00;;;4.77;;
10191;SDS011;17580;50.850;4.504;2023-04-03T05:19:51;6.27;;;5.37;;
10191;SDS011;17580;50.850;4.504;2023-04-03T05:22:18;5.37;;;4.97;;
10191;SDS011;17580;50.850;4.504;2023-04-03T05:24:45;6.07;;;5.57;;
10191;SDS011;17580;50.850;4.504;2023-04-03T05:27:12;8.07;;;5.17;;
10191;SDS011;17580;50.850;4.504;2023-04-03T05:29:39;5.10;;;4.63;;
10191;SDS011;17580;50.850;4.504;2023-04-03T05:32:08;5.30;;;4.90;;
10191;SDS011;17580;50.850;4.504;2023-04-03T05:34:37;5.40;;;4.93;;
10191;SDS011;17580;50.850;4.504;2023-04-03T05:37:04;5.93;;;5.43;;
10191;SDS011;17580;50.850;4.504;2023-04-03T05:39:31;5.47;;;4.97;;
10191;SDS011;17580;50.850;4.504;2023-04-03T05:41:58;6.93;;;5.27;;
10191;SDS011;17580;50.850;4.504;2023-04-03T05:44:25;6.07;;;5.50;;
10191;SDS011;17580;50.850;4.504;2023-04-03T05:46:52;6.37;;;5.77;;
10191;SDS011;17580;50.850;4.504;2023-04-03T05:49:19;6.47;;;5.97;;
10191;SDS011;17580;50.850;4.504;2023-04-03T05:51:47;6.90;;;6.20;;
10191;SDS011;17580;50.850;4.504;2023-04-03T05:54:16;7.30;;;6.60;;
10191;SDS011;17580;50.850;4.504;2023-04-03T05:56:45;9.13;;;6.73;;
10191;SDS011;17580;50.850;4.504;2023-04-03T05:59:12;7.10;;;6.40;;
10191;SDS011;17580;50.850;4.504;2023-04-03T06:01:39;6.20;;;5.60;;
10191;SDS011;17580;50.850;4.504;2023-04-03T06:04:06;6.90;;;6.23;;
10191;SDS011;17580;50.850;4.504;2023-04-03T06:06:48;6.67;;;6.10;;
10191;SDS011;17580;50.850;4.504;2023-04-03T06:09:17;7.03;;;6.27;;
10191;SDS011;17580;50.850;4.504;2023-04-03T06:11:45;7.10;;;6.10;;
10191;SDS011;17580;50.850;4.504;2023-04-03T06:14:12;8.07;;;6.10;;
10191;SDS011;17580;50.850;4.504;2023-04-03T06:16:40;6.50;;;6.00;;
10191;SDS011;17580;50.850;4.504;2023-04-03T06:19:07;7.27;;;6.00;;
10191;SDS011;17580;50.850;4.504;2023-04-03T06:21:34;9.03;;;5.90;;
10191;SDS011;17580;50.850;4.504;2023-04-03T06:24:03;6.43;;;5.80;;
10191;SDS011;17580;50.850;4.504;2023-04-03T06:26:31;8.17;;;5.70;;
10191;SDS011;17580;50.850;4.504;2023-04-03T06:28:58;6.50;;;5.90;;
10191;SDS011;17580;50.850;4.504;2023-04-03T06:31:25;6.00;;;5.43;;
10191;SDS011;17580;50.850;4.504;2023-04-03T06:33:52;5.90;;;5.50;;
10191;SDS011;17580;50.850;4.504;2023-04-03T06:36:19;5.83;;;5.33;;
10191;SDS011;17580;50.850;4.504;2023-04-03T06:38:46;6.70;;;5.93;;
10191;SDS011;17580;50.850;4.504;2023-04-03T06:41:15;5.83;;;5.27;;
10191;SDS011;17580;50.850;4.504;2023-04-03T06:43:42;6.90;;;5.70;;
10191;SDS011;17580;50.850;4.504;2023-04-03T06:46:12;6.17;;;5.57;;
10191;SDS011;17580;50.850;4.504;2023-04-03T06:48:41;6.70;;;6.03;;
10191;SDS011;17580;50.850;4.504;2023-04-03T06:51:12;6.73;;;6.03;;
10191;SDS011;17580;50.850;4.504;2023-04-03T06:53:43;6.20;;;5.70;;
10191;SDS011;17580;50.850;4.504;2023-04-03T06:56:11;6.83;;;6.13;;
10191;SDS011;17580;50.850;4.504;2023-04-03T06:58:39;7.03;;;5.97;;
10191;SDS011;17580;50.850;4.504;2023-04-03T07:01:06;6.10;;;5.60;;
10191;SDS011;17580;50.850;4.504;2023-04-03T07:03:34;9.53;;;5.77;;
10191;SDS011;17580;50.850;4.504;2023-04-03T07:06:01;9.87;;;6.53;;
10191;SDS011;17580;50.850;4.504;2023-04-03T07:08:29;7.77;;;6.97;;
10191;SDS011;17580;50.850;4.504;2023-04-03T07:10:56;8.77;;;5.40;;
10191;SDS011;17580;50.850;4.504;2023-04-03T07:13:23;9.70;;;5.73;;
10191;SDS011;17580;50.850;4.504;2023-04-03T07:15:51;7.80;;;6.13;;
10191;SDS011;17580;50.850;4.504;2023-04-03T07:18:19;6.43;;;5.87;;
10191;SDS011;17580;50.850;4.504;2023-04-03T07:20:46;7.03;;;6.00;;
10191;SDS011;17580;50.850;4.504;2023-04-03T07:23:13;8.33;;;6.37;;
10191;SDS011;17580;50.850;4.504;2023-04-03T07:25:42;8.30;;;5.97;;
10191;SDS011;17580;50.850;4.504;2023-04-03T07:28:09;8.77;;;6.23;;
10191;SDS011;17580;50.850;4.504;2023-04-03T07:30:41;6.70;;;6.10;;
10191;SDS011;17580;50.850;4.504;2023-04-03T07:33:11;6.40;;;5.77;;
10191;SDS011;17580;50.850;4.504;2023-04-03T07:35:39;7.37;;;6.00;;
10191;SDS011;17580;50.850;4.504;2023-04-03T07:38:06;10.60;;;6.80;;
10191;SDS011;17580;50.850;4.504;2023-04-03T07:40:33;6.07;;;5.57;;
10191;SDS011;17580;50.850;4.504;2023-04-03T07:43:01;6.97;;;6.27;;
10191;SDS011;17580;50.850;4.504;2023-04-03T07:45:28;6.43;;;5.83;;
10191;SDS011;17580;50.850;4.504;2023-04-03T07:47:55;6.30;;;5.27;;
10191;SDS011;17580;50.850;4.504;2023-04-03T07:50:24;7.37;;;5.80;;
10191;SDS011;17580;50.850;4.504;2023-04-03T07:52:51;6.43;;;5.83;;
10191;SDS011;17580;50.850;4.504;2023-04-03T07:55:19;7.00;;;5.80;;
10191;SDS011;17580;50.850;4.504;2023-04-03T07:57:46;5.77;;;4.60;;
10191;SDS011;17580;50.850;4.504;2023-04-03T08:00:14;7.03;;;5.33;;
10191;SDS011;17580;50.850;4.504;2023-04-03T08:02:42;7.13;;;4.90;;
10191;SDS011;17580;50.850;4.504;2023-04-03T08:05:09;9.77;;;5.23;;
10191;SDS011;17580;50.850;4.504;2023-04-03T08:07:38;4.50;;;4.20;;
10191;SDS011;17580;50.850;4.504;2023-04-03T08:10:05;4.37;;;3.97;;
10191;SDS011;17580;50.850;4.504;2023-04-03T08:12:32;4.97;;;4.47;;
10191;SDS011;17580;50.850;4.504;2023-04-03T08:14:59;5.13;;;4.53;;
10191;SDS011;17580;50.850;4.504;2023-04-03T08:17:27;5.60;;;4.60;;
10191;SDS011;17580;50.850;4.504;2023-04-03T08:19:54;4.30;;;3.60;;
10191;SDS011;17580;50.850;4.504;2023-04-03T08:22:21;6.10;;;4.53;;
10191;SDS011;17580;50.850;4.504;2023-04-03T08:24:49;4.47;;;4.10;;
10191;SDS011;17580;50.850;4.504;2023-04-03T08:27:16;4.30;;;3.97;;
10191;SDS011;17580;50.850;4.504;2023-04-03T08:29:43;4.67;;;4.27;;
10191;SDS011;17580;50.850;4.504;2023-04-03T08:32:10;5.97;;;4.97;;
10191;SDS011;17580;50.850;4.504;2023-04-03T08:34:37;4.30;;;3.90;;
10191;SDS011;17580;50.850;4.504;2023-04-03T08:37:04;6.80;;;3.93;;
10191;SDS011;17580;50.850;4.504;2023-04-03T08:39:32;4.97;;;4.40;;
10191;SDS011;17580;50.850;4.504;2023-04-03T08:42:02;4.40;;;4.00;;
10191;SDS011;17580;50.850;4.504;2023-04-03T08:44:37;4.00;;;3.70;;
10191;SDS011;17580;50.850;4.504;2023-04-03T08:47:12;4.00;;;3.70;;
10191;SDS011;17580;50.850;4.504;2023-04-03T08:49:50;4.07;;;3.20;;
10191;SDS011;17580;50.850;4.504;2023-04-03T08:52:20;3.77;;;3.47;;
10191;SDS011;17580;50.850;4.504;2023-04-03T08:54:54;4.10;;;3.70;;
10191;SDS011;17580;50.850;4.504;2023-04-03T08:57:28;3.90;;;3.60;;
10191;SDS011;17580;50.850;4.504;2023-04-03T08:59:58;3.63;;;3.13;;
10191;SDS011;17580;50.850;4.504;2023-04-03T09:02:29;6.13;;;4.17;;
10191;SDS011;17580;50.850;4.504;2023-04-03T09:05:01;4.50;;;3.57;;
10191;SDS011;17580;50.850;4.504;2023-04-03T09:07:33;3.90;;;3.50;;
10191;SDS011;17580;50.850;4.504;2023-04-03T09:10:05;3.33;;;3.13;;
10191;SDS011;17580;50.850;4.504;2023-04-03T09:12:38;3.70;;;3.30;;
10191;SDS011;17580;50.850;4.504;2023-04-03T09:15:10;3.27;;;2.97;;
10191;SDS011;17580;50.850;4.504;2023-04-03T09:17:46;5.20;;;3.10;;
10191;SDS011;17580;50.850;4.504;2023-04-03T09:20:25;4.57;;;2.87;;
10191;SDS011;17580;50.850;4.504;2023-04-03T09:22:57;5.00;;;2.87;;
10191;SDS011;17580;50.850;4.504;2023-04-03T09:25:25;2.60;;;2.40;;
10191;SDS011;17580;50.850;4.504;2023-04-03T09:27:55;2.70;;;2.50;;
10191;SDS011;17580;50.850;4.504;2023-04-03T09:30:23;4.43;;;2.93;;
10191;SDS011;17580;50.850;4.504;2023-04-03T09:32:52;3.03;;;2.50;;
10191;SDS011;17580;50.850;4.504;2023-04-03T09:35:21;3.20;;;2.30;;
10191;SDS011;17580;50.850;4.504;2023-04-03T09:37:50;3.30;;;2.50;;
10191;SDS011;17580;50.850;4.504;2023-04-03T09:40:29;2.50;;;2.30;;
10191;SDS011;17580;50.850;4.504;2023-04-03T09:43:04;3.23;;;2.70;;
10191;SDS011;17580;50.850;4.504;2023-04-03T09:45:47;2.20;;;2.00;;
10191;SDS011;17580;50.850;4.504;2023-04-03T09:48:15;2.63;;;2.43;;
10191;SDS011;17580;50.850;4.504;2023-04-03T09:50:58;2.23;;;2.03;;
10191;SDS011;17580;50.850;4.504;2023-04-03T09:53:28;3.37;;;3.00;;
10191;SDS011;17580;50.850;4.504;2023-04-03T09:55:57;3.30;;;2.73;;
10191;SDS011;17580;50.850;4.504;2023-04-03T09:58:27;2.60;;;2.40;;
10191;SDS011;17580;50.850;4.504;2023-04-03T10:00:56;3.00;;;2.13;;
10191;SDS011;17580;50.850;4.504;2023-04-03T10:03:25;2.90;;;2.03;;
10191;SDS011;17580;50.850;4.504;2023-04-03T10:05:55;2.10;;;2.00;;
10191;SDS011;17580;50.850;4.504;2023-04-03T10:08:24;3.53;;;2.40;;
10191;SDS011;17580;50.850;4.504;2023-04-03T10:11:13;3.43;;;2.47;;
10191;SDS011;17580;50.850;4.504;2023-04-03T10:13:56;3.43;;;2.60;;
10191;SDS011;17580;50.850;4.504;2023-04-03T10:16:29;3.73;;;2.30;;
10191;SDS011;17580;50.850;4.504;2023-04-03T10:19:15;2.43;;;2.23;;
10191;SDS011;17580;50.850;4.504;2023-04-03T10:21:55;4.63;;;2.70;;
10191;SDS011;17580;50.850;4.504;2023-04-03T10:24:27;2.73;;;2.50;;
10191;SDS011;17580;50.850;4.504;2023-04-03T10:27:02;2.30;;;2.13;;
10191;SDS011;17580;50.850;4.504;2023-04-03T10:29:42;3.33;;;2.30;;
10191;SDS011;17580;50.850;4.504;2023-04-03T10:32:24;2.47;;;2.27;;
10191;SDS011;17580;50.850;4.504;2023-04-03T10:35:02;4.57;;;2.70;;
10191;SDS011;17580;50.850;4.504;2023-04-03T10:37:41;3.03;;;2.50;;
10191;SDS011;17580;50.850;4.504;2023-04-03T10:40:22;2.87;;;2.57;;
10191;SDS011;17580;50.850;4.504;2023-04-03T10:42:57;2.20;;;2.10;;
10191;SDS011;17580;50.850;4.504;2023-04-03T10:45:36;2.57;;;2.33;;
10191;SDS011;17580;50.850;4.504;2023-04-03T10:48:17;4.90;;;2.37;;
10191;SDS011;17580;50.850;4.504;2023-04-03T10:50:58;1.97;;;1.80;;
10191;SDS011;17580;50.850;4.504;2023-04-03T10:53:34;2.67;;;2.47;;
10191;SDS011;17580;50.850;4.504;2023-04-03T10:56:07;3.20;;;2.90;;
10191;SDS011;17580;50.850;4.504;2023-04-03T10:58:44;3.10;;;2.57;;
10191;SDS011;17580;50.850;4.504;2023-04-03T11:01:16;2.70;;;2.10;;
10191;SDS011;17580;50.850;4.504;2023-04-03T11:03:48;1.83;;;1.73;;
10191;SDS011;17580;50.850;4.504;2023-04-03T11:06:19;2.10;;;1.80;;
10191;SDS011;17580;50.850;4.504;2023-04-03T11:08:51;3.53;;;2.00;;
10191;SDS011;17580;50.850;4.504;2023-04-03T11:11:24;1.83;;;1.73;;
10191;SDS011;17580;50.850;4.504;2023-04-03T11:13:54;2.13;;;1.73;;
10191;SDS011;17580;50.850;4.504;2023-04-03T11:16:30;2.60;;;1.80;;
10191;SDS011;17580;50.850;4.504;2023-04-03T11:19:02;2.37;;;2.00;;
10191;SDS011;17580;50.850;4.504;2023-04-03T11:21:34;2.53;;;2.03;;
10191;SDS011;17580;50.850;4.504;2023-04-03T11:24:06;2.43;;;2.00;;
10191;SDS011;17580;50.850;4.504;2023-04-03T11:26:42;2.47;;;2.00;;
10191;SDS011;17580;50.850;4.504;2023-04-03T11:29:11;2.20;;;2.00;;
10191;SDS011;17580;50.850;4.504;2023-04-03T11:31:50;2.30;;;2.10;;
10191;SDS011;17580;50.850;4.504;2023-04-03T11:34:33;2.67;;;2.23;;
10191;SDS011;17580;50.850;4.504;2023-04-03T11:37:05;3.73;;;2.17;;
10191;SDS011;17580;50.850;4.504;2023-04-03T11:39:40;2.00;;;1.90;;
10191;SDS011;17580;50.850;4.504;2023-04-03T11:42:17;2.53;;;2.07;;
10191;SDS011;17580;50.850;4.504;2023-04-03T11:47:45;3.37;;;1.90;;
10191;SDS011;17580;50.850;4.504;2023-04-03T11:59:15;2.00;;;1.80;;
10191;SDS011;17580;50.850;4.504;2023-04-03T12:01:49;2.27;;;1.70;;
10191;SDS011;17580;50.850;4.504;2023-04-03T12:04:19;2.03;;;1.93;;
10191;SDS011;17580;50.850;4.504;2023-04-03T12:06:49;2.43;;;2.10;;
10191;SDS011;17580;50.850;4.504;2023-04-03T12:09:27;3.73;;;2.00;;
10191;SDS011;17580;50.850;4.504;2023-04-03T12:12:00;2.93;;;1.40;;
10191;SDS011;17580;50.850;4.504;2023-04-03T12:14:43;1.77;;;1.67;;
10191;SDS011;17580;50.850;4.504;2023-04-03T12:17:12;2.00;;;1.87;;
10191;SDS011;17580;50.850;4.504;2023-04-03T12:19:50;1.97;;;1.87;;
10191;SDS011;17580;50.850;4.504;2023-04-03T12:22:17;2.23;;;2.03;;
10191;SDS011;17580;50.850;4.504;2023-04-03T12:24:46;1.63;;;1.53;;
10191;SDS011;17580;50.850;4.504;2023-04-03T12:27:21;2.00;;;1.80;;
10191;SDS011;17580;50.850;4.504;2023-04-03T12:30:24;4.83;;;2.00;;
10191;SDS011;17580;50.850;4.504;2023-04-03T12:35:57;2.80;;;1.70;;
10191;SDS011;17580;50.850;4.504;2023-04-03T12:38:58;1.80;;;1.70;;
10191;SDS011;17580;50.850;4.504;2023-04-03T12:41:36;1.53;;;1.37;;
10191;SDS011;17580;50.850;4.504;2023-04-03T12:47:13;1.70;;;1.60;;
10191;SDS011;17580;50.850;4.504;2023-04-03T12:49:49;1.50;;;1.40;;
10191;SDS011;17580;50.850;4.504;2023-04-03T12:52:21;2.07;;;1.87;;
10191;SDS011;17580;50.850;4.504;2023-04-03T12:54:56;1.60;;;1.50;;
10191;SDS011;17580;50.850;4.504;2023-04-03T12:57:25;1.53;;;1.43;;
10191;SDS011;17580;50.850;4.504;2023-04-03T12:59:53;6.60;;;1.90;;
10191;SDS011;17580;50.850;4.504;2023-04-03T13:02:22;1.80;;;1.70;;
10191;SDS011;17580;50.850;4.504;2023-04-03T13:04:51;1.50;;;1.50;;
10191;SDS011;17580;50.850;4.504;2023-04-03T13:07:24;2.30;;;2.10;;
10191;SDS011;17580;50.850;4.504;2023-04-03T13:09:57;1.60;;;1.50;;
10191;SDS011;17580;50.850;4.504;2023-04-03T13:12:25;1.27;;;1.20;;
10191;SDS011;17580;50.850;4.504;2023-04-03T13:14:53;1.50;;;1.40;;
10191;SDS011;17580;50.850;4.504;2023-04-03T13:17:22;2.03;;;1.40;;
10191;SDS011;17580;50.850;4.504;2023-04-03T13:19:49;1.67;;;1.57;;
10191;SDS011;17580;50.850;4.504;2023-04-03T13:22:25;2.23;;;1.50;;
10191;SDS011;17580;50.850;4.504;2023-04-03T13:24:55;3.37;;;1.70;;
10191;SDS011;17580;50.850;4.504;2023-04-03T13:27:25;2.10;;;1.83;;
10191;SDS011;17580;50.850;4.504;2023-04-03T13:29:54;2.23;;;1.60;;
10191;SDS011;17580;50.850;4.504;2023-04-03T13:32:26;1.80;;;1.70;;
10191;SDS011;17580;50.850;4.504;2023-04-03T13:34:54;1.80;;;1.50;;
10191;SDS011;17580;50.850;4.504;2023-04-03T13:37:25;1.80;;;1.70;;
10191;SDS011;17580;50.850;4.504;2023-04-03T13:39:56;2.23;;;1.87;;
10191;SDS011;17580;50.850;4.504;2023-04-03T13:42:26;2.67;;;1.67;;
10191;SDS011;17580;50.850;4.504;2023-04-03T13:45:09;2.20;;;2.00;;
10191;SDS011;17580;50.850;4.504;2023-04-03T13:47:38;2.90;;;1.90;;
10191;SDS011;17580;50.850;4.504;2023-04-03T13:50:13;1.40;;;1.30;;
10191;SDS011;17580;50.850;4.504;2023-04-03T13:52:46;2.00;;;1.70;;
10191;SDS011;17580;50.850;4.504;2023-04-03T13:55:16;4.03;;;1.73;;
10191;SDS011;17580;50.850;4.504;2023-04-03T13:57:54;1.73;;;1.63;;
10191;SDS011;17580;50.850;4.504;2023-04-03T14:00:33;1.73;;;1.63;;
10191;SDS011;17580;50.850;4.504;2023-04-03T14:03:11;2.90;;;1.63;;
10191;SDS011;17580;50.850;4.504;2023-04-03T14:05:40;2.27;;;1.90;;
10191;SDS011;17580;50.850;4.504;2023-04-03T14:08:08;3.03;;;1.73;;
10191;SDS011;17580;50.850;4.504;2023-04-03T14:10:36;1.87;;;1.63;;
10191;SDS011;17580;50.850;4.504;2023-04-03T14:13:03;2.40;;;1.77;;
10191;SDS011;17580;50.850;4.504;2023-04-03T14:15:30;2.30;;;1.80;;
10191;SDS011;17580;50.850;4.504;2023-04-03T14:17:58;2.80;;;1.73;;
10191;SDS011;17580;50.850;4.504;2023-04-03T14:20:26;2.93;;;1.70;;
10191;SDS011;17580;50.850;4.504;2023-04-03T14:22:53;3.03;;;2.10;;
10191;SDS011;17580;50.850;4.504;2023-04-03T14:25:22;3.83;;;2.37;;
10191;SDS011;17580;50.850;4.504;2023-04-03T14:27:51;2.53;;;1.73;;
10191;SDS011;17580;50.850;4.504;2023-04-03T14:30:21;1.63;;;1.53;;
10191;SDS011;17580;50.850;4.504;2023-04-03T14:32:50;1.97;;;1.87;;
10191;SDS011;17580;50.850;4.504;2023-04-03T14:35:18;1.67;;;1.57;;
10191;SDS011;17580;50.850;4.504;2023-04-03T14:37:46;2.67;;;1.67;;
10191;SDS011;17580;50.850;4.504;2023-04-03T14:40:14;1.20;;;1.20;;
10191;SDS011;17580;50.850;4.504;2023-04-03T14:42:43;1.63;;;1.53;;
10191;SDS011;17580;50.850;4.504;2023-04-03T14:45:12;1.67;;;1.57;;
10191;SDS011;17580;50.850;4.504;2023-04-03T14:47:40;1.53;;;1.40;;
10191;SDS011;17580;50.850;4.504;2023-04-03T14:50:13;2.77;;;1.67;;
10191;SDS011;17580;50.850;4.504;2023-04-03T14:52:43;1.60;;;1.50;;
10191;SDS011;17580;50.850;4.504;2023-04-03T14:55:11;2.37;;;1.43;;
10191;SDS011;17580;50.850;4.504;2023-04-03T14:57:40;2.37;;;1.63;;
10191;SDS011;17580;50.850;4.504;2023-04-03T15:00:10;2.57;;;1.70;;
10191;SDS011;17580;50.850;4.504;2023-04-03T15:02:41;2.10;;;1.40;;
10191;SDS011;17580;50.850;4.504;2023-04-03T15:05:10;4.77;;;1.77;;
10191;SDS011;17580;50.850;4.504;2023-04-03T15:07:39;1.87;;;1.57;;
10191;SDS011;17580;50.850;4.504;2023-04-03T15:10:14;3.77;;;1.67;;
10191;SDS011;17580;50.850;4.504;2023-04-03T15:12:43;1.30;;;1.30;;
10191;SDS011;17580;50.850;4.504;2023-04-03T15:15:13;1.93;;;1.83;;
10191;SDS011;17580;50.850;4.504;2023-04-03T15:17:43;1.60;;;1.50;;
10191;SDS011;17580;50.850;4.504;2023-04-03T15:20:11;2.43;;;1.30;;
10191;SDS011;17580;50.850;4.504;2023-04-03T15:22:40;5.70;;;1.90;;